createdAt,value
2022-08-26T00:02:34.341Z,99971
2022-08-26T00:07:34.165Z,99967
2022-08-26T00:12:37.479Z,99962
2022-08-26T00:17:34.175Z,99960
2022-08-26T00:22:34.149Z,99960
2022-08-26T00:27:34.164Z,99966
2022-08-26T00:32:34.189Z,99960
2022-08-26T00:37:34.243Z,99961
2022-08-26T00:42:34.154Z,99954
2022-08-26T00:47:34.216Z,99948
2022-08-26T00:52:34.160Z,99945
2022-08-26T00:57:34.216Z,99946
2022-08-26T01:02:34.221Z,99949
2022-08-26T01:07:34.901Z,99951
2022-08-26T01:12:34.169Z,99949
2022-08-26T01:17:34.282Z,99948
2022-08-26T01:22:34.192Z,99945
2022-08-26T01:27:34.225Z,99939
2022-08-26T01:32:34.210Z,99938
2022-08-26T01:37:34.239Z,99941
2022-08-26T01:42:34.192Z,99941
2022-08-26T01:47:34.419Z,99944
2022-08-26T01:52:34.202Z,99939
2022-08-26T01:57:34.239Z,99936
2022-08-26T02:02:34.226Z,99934
2022-08-26T02:07:34.223Z,99940
2022-08-26T02:12:34.196Z,99942
2022-08-26T02:17:34.258Z,99940
2022-08-26T02:22:34.214Z,99940
2022-08-26T02:27:34.230Z,99940
2022-08-26T02:32:34.240Z,99940
2022-08-26T02:37:34.236Z,99938
2022-08-26T02:42:34.221Z,99940
2022-08-26T02:47:34.273Z,99937
2022-08-26T02:52:34.242Z,99937
2022-08-26T02:57:34.271Z,99937
2022-08-26T03:02:34.264Z,99942
2022-08-26T03:07:34.296Z,99941
2022-08-26T03:12:34.229Z,99940
2022-08-26T03:17:34.310Z,99939
2022-08-26T03:22:34.243Z,99932
2022-08-26T03:27:34.280Z,99932
2022-08-26T03:32:34.295Z,99929
2022-08-26T03:37:34.294Z,99924
2022-08-26T03:42:34.251Z,99924
2022-08-26T03:47:34.325Z,99920
2022-08-26T03:52:34.258Z,99923
2022-08-26T03:57:34.287Z,99920
2022-08-26T04:02:34.381Z,99921
2022-08-26T04:07:34.307Z,99926
2022-08-26T04:12:34.270Z,99927
2022-08-26T04:17:34.331Z,99921
2022-08-26T04:27:34.557Z,99924
2022-08-26T04:32:34.359Z,99924
2022-08-26T04:37:34.311Z,99920
2022-08-26T04:42:34.361Z,99921
2022-08-26T04:47:34.344Z,99924
2022-08-26T04:52:34.290Z,99924
2022-08-26T04:57:34.316Z,99927
2022-08-26T05:02:34.337Z,99928
2022-08-26T05:07:34.327Z,99925
2022-08-26T05:12:34.302Z,99927
2022-08-26T05:17:34.373Z,99927
2022-08-26T05:22:34.308Z,99934
2022-08-26T05:27:34.348Z,99931
2022-08-26T05:32:34.340Z,99935
2022-08-26T05:37:34.362Z,99935
2022-08-26T05:42:34.385Z,99936
2022-08-26T05:47:34.376Z,99936
2022-08-26T05:52:34.316Z,99941
2022-08-26T05:57:38.663Z,99947
2022-08-26T06:02:34.516Z,99950
2022-08-26T06:07:34.366Z,99950
2022-08-26T06:12:34.322Z,99944
2022-08-26T06:22:34.384Z,99951
2022-08-26T06:27:34.358Z,99956
2022-08-26T06:32:34.414Z,99956
2022-08-26T06:37:34.389Z,99959
2022-08-26T06:42:34.482Z,99959
2022-08-26T06:47:34.348Z,99953
2022-08-26T06:52:34.410Z,99958
2022-08-26T06:57:34.890Z,99954
2022-08-26T07:02:34.469Z,99961
2022-08-26T07:07:34.404Z,99959
2022-08-26T07:12:34.382Z,99956
2022-08-26T07:17:34.363Z,99957
2022-08-26T07:22:34.399Z,99955
2022-08-26T07:27:34.381Z,99957
2022-08-26T07:32:34.423Z,99950
2022-08-26T07:37:35.650Z,99949
2022-08-26T07:42:34.511Z,99947
2022-08-26T07:47:34.381Z,99948
2022-08-26T07:52:34.421Z,99944
2022-08-26T08:02:34.439Z,99940
2022-08-26T08:07:38.361Z,99946
2022-08-26T08:12:34.415Z,99944
2022-08-26T08:17:34.479Z,99936
2022-08-26T08:22:34.436Z,99927
2022-08-26T08:27:34.406Z,99924
2022-08-26T08:32:34.467Z,99929
2022-08-26T08:37:34.445Z,99925
2022-08-26T08:42:34.461Z,99921
2022-08-26T08:47:34.422Z,99921
2022-08-26T08:52:34.460Z,99911
2022-08-26T08:57:34.442Z,99911
2022-08-26T09:02:34.596Z,99911
2022-08-26T09:07:36.491Z,99907
2022-08-26T09:12:34.543Z,99903
2022-08-26T09:17:34.431Z,99904
2022-08-26T09:22:34.473Z,99901
2022-08-26T09:27:34.447Z,99894
2022-08-26T09:32:34.490Z,99894
2022-08-26T09:37:34.579Z,99885
2022-08-26T09:42:35.895Z,99881
2022-08-26T09:47:34.445Z,99881
2022-08-26T09:52:34.521Z,99881
2022-08-26T09:57:34.452Z,99871
2022-08-26T10:02:34.530Z,99874
2022-08-26T10:07:34.489Z,99874
2022-08-26T10:12:34.498Z,99863
2022-08-26T10:22:34.503Z,99858
2022-08-26T10:27:34.475Z,99848
2022-08-26T10:32:34.515Z,99852
2022-08-26T10:37:34.609Z,99841
2022-08-26T10:42:34.548Z,99835
2022-08-26T10:47:34.511Z,99829
2022-08-26T10:52:34.532Z,99827
2022-08-26T10:57:34.496Z,99823
2022-08-26T11:02:34.569Z,99814
2022-08-26T11:12:34.541Z,99804
2022-08-26T11:17:34.516Z,99809
2022-08-26T11:22:34.559Z,99801
2022-08-26T11:27:34.545Z,99797
2022-08-26T11:32:34.574Z,99791
2022-08-26T11:37:34.556Z,99787
2022-08-26T11:42:34.557Z,99781
2022-08-26T11:47:34.527Z,99774
2022-08-26T11:52:34.579Z,99774
2022-08-26T11:57:34.573Z,99768
2022-08-26T12:02:34.596Z,99756
2022-08-26T12:07:34.530Z,99756
2022-08-26T12:12:35.221Z,99743
2022-08-26T12:17:34.628Z,99743
2022-08-26T12:22:34.599Z,99733
2022-08-26T12:27:34.572Z,99722
2022-08-26T12:32:34.633Z,99720
2022-08-26T12:37:34.561Z,99716
2022-08-26T12:42:34.633Z,99716
2022-08-26T12:47:43.601Z,99709
2022-08-26T12:52:34.654Z,99701
2022-08-26T12:57:34.644Z,99701
2022-08-26T13:02:34.705Z,99694
2022-08-26T13:07:34.576Z,99691
2022-08-26T13:12:34.658Z,99684
2022-08-26T13:17:34.599Z,99680
2022-08-26T13:22:34.718Z,99680
2022-08-26T13:27:34.648Z,99671
2022-08-26T13:32:34.635Z,99665
2022-08-26T13:37:35.540Z,99662
2022-08-26T13:42:34.710Z,99662
2022-08-26T13:47:34.602Z,99657
2022-08-26T13:52:34.671Z,99653
2022-08-26T13:57:34.688Z,99655
2022-08-26T14:02:34.657Z,99644
2022-08-26T14:07:34.699Z,99644
2022-08-26T14:12:34.677Z,99645
2022-08-26T14:17:34.622Z,99654
2022-08-26T14:22:37.819Z,99659
2022-08-26T14:27:34.690Z,99660
2022-08-26T14:32:34.682Z,99662
2022-08-26T14:37:34.644Z,99650
2022-08-26T14:42:34.686Z,99652
2022-08-26T14:47:34.661Z,99652
2022-08-26T14:52:34.708Z,99649
2022-08-26T14:57:34.691Z,99642
2022-08-26T15:02:34.788Z,99642
2022-08-26T15:07:34.654Z,99638
2022-08-26T15:12:34.696Z,99641
2022-08-26T15:17:34.678Z,99631
2022-08-26T15:22:34.700Z,99633
2022-08-26T15:27:34.706Z,99633
2022-08-26T15:32:34.693Z,99629
2022-08-26T15:37:34.689Z,99635
2022-08-26T15:42:34.822Z,99633
2022-08-26T15:47:48.381Z,99624
2022-08-26T15:52:34.736Z,99615
2022-08-26T15:57:34.733Z,99611
2022-08-26T16:02:34.738Z,99605
2022-08-26T16:07:34.697Z,99604
2022-08-26T16:12:34.727Z,99604
2022-08-26T16:17:34.695Z,99609
2022-08-26T16:22:34.842Z,99607
2022-08-26T16:27:34.746Z,99603
2022-08-26T16:32:34.755Z,99603
2022-08-26T16:37:37.670Z,99602
2022-08-26T16:42:34.782Z,99602
2022-08-26T16:47:34.725Z,99600
2022-08-26T16:57:34.751Z,99604
2022-08-26T17:02:34.758Z,99604
2022-08-26T17:07:34.780Z,99604
2022-08-26T17:12:34.783Z,99606
2022-08-26T17:17:34.772Z,99609
2022-08-26T17:22:34.836Z,99607
2022-08-26T17:27:34.798Z,99609
2022-08-26T17:32:34.732Z,99607
2022-08-26T17:37:34.763Z,99609
2022-08-26T17:42:34.798Z,99609
2022-08-26T17:47:34.760Z,99609
2022-08-26T17:52:34.740Z,99610
2022-08-26T17:57:40.549Z,99611
2022-08-26T18:02:34.755Z,99613
2022-08-26T18:07:39.042Z,99613
2022-08-26T18:12:34.781Z,99613
2022-08-26T18:17:34.897Z,99620
2022-08-26T18:22:34.745Z,99616
2022-08-26T18:27:34.804Z,99618
2022-08-26T18:32:34.782Z,99612
2022-08-26T18:37:34.791Z,99619
2022-08-26T18:42:34.804Z,99620
2022-08-26T18:47:34.822Z,99629
2022-08-26T18:52:34.764Z,99629
2022-08-26T18:57:34.821Z,99634
2022-08-26T19:02:35.038Z,99637
2022-08-26T19:07:39.426Z,99634
2022-08-26T19:12:34.867Z,99646
2022-08-26T19:17:35.000Z,99638
2022-08-26T19:22:34.990Z,99637
2022-08-26T19:27:35.018Z,99638
2022-08-26T19:32:34.918Z,99645
2022-08-26T19:37:34.898Z,99645
2022-08-26T19:42:35.050Z,99645
2022-08-26T19:47:35.012Z,99655
2022-08-26T19:52:34.986Z,99654
2022-08-26T19:57:35.039Z,99663
2022-08-26T20:02:35.038Z,99673
2022-08-26T20:07:35.083Z,99676
2022-08-26T20:12:35.025Z,99674
2022-08-26T20:17:35.075Z,99674
2022-08-26T20:22:34.843Z,99680
2022-08-26T20:27:38.445Z,99681
2022-08-26T20:32:35.645Z,99682
2022-08-26T20:37:34.995Z,99686
2022-08-26T20:42:34.945Z,99686
2022-08-26T20:47:34.905Z,99695
2022-08-26T20:52:34.861Z,99695
2022-08-26T20:57:34.988Z,99701
2022-08-26T21:02:34.865Z,99706
2022-08-26T21:07:34.932Z,99708
2022-08-26T21:12:34.921Z,99708
2022-08-26T21:17:34.959Z,99714
2022-08-26T21:22:34.872Z,99719
2022-08-26T21:27:34.917Z,99717
2022-08-26T21:32:34.876Z,99713
2022-08-26T21:37:34.916Z,99713
2022-08-26T21:42:34.924Z,99716
2022-08-26T21:47:35.015Z,99715
2022-08-26T21:52:34.906Z,99719
2022-08-26T21:57:35.038Z,99717
2022-08-26T22:02:34.952Z,99711
2022-08-26T22:07:34.950Z,99705
2022-08-26T22:12:34.931Z,99712
2022-08-26T22:17:34.954Z,99713
2022-08-26T22:22:35.112Z,99713
2022-08-26T22:27:34.960Z,99712
2022-08-26T22:32:34.911Z,99708
2022-08-26T22:37:35.131Z,99708
2022-08-26T22:42:34.907Z,99705
2022-08-26T22:47:34.946Z,99693
2022-08-26T22:52:34.955Z,99693
2022-08-26T22:57:34.950Z,99690
2022-08-26T23:02:34.933Z,99687
2022-08-26T23:07:34.976Z,99689
2022-08-26T23:12:34.936Z,99690
2022-08-26T23:17:34.970Z,99687
2022-08-26T23:22:34.990Z,99688
2022-08-26T23:27:34.999Z,99680
2022-08-26T23:32:34.947Z,99680
2022-08-26T23:37:35.017Z,99677
2022-08-26T23:42:34.933Z,99668
2022-08-26T23:47:34.988Z,99668
2022-08-26T23:52:34.996Z,99671
2022-08-26T23:57:34.974Z,99665
